createdAt,value
2019-05-11T00:01:19.860Z,100911.19
2019-05-11T00:03:48.506Z,100926.03
2019-05-11T00:06:17.086Z,100930.88
2019-05-11T00:08:45.701Z,100932.43
2019-05-11T00:11:14.253Z,100929.69
2019-05-11T00:13:42.884Z,100928.59
2019-05-11T00:16:11.402Z,100926.03
2019-05-11T00:18:40.033Z,100918.14
2019-05-11T00:21:08.674Z,100911.69
2019-05-11T00:23:37.267Z,100901.06
2019-05-11T00:26:05.893Z,100891.56
2019-05-11T00:28:34.494Z,100885.59
2019-05-11T00:31:03.159Z,100879.56
2019-05-11T00:33:31.715Z,100886.62
2019-05-11T00:36:00.355Z,100883.98
2019-05-11T00:38:28.992Z,100884.59
2019-05-11T00:40:57.592Z,100887.19
2019-05-11T00:43:26.138Z,100883.98
2019-05-11T00:45:54.802Z,100892.42
2019-05-11T00:48:23.296Z,100889.51
2019-05-11T00:50:51.899Z,100888.58
2019-05-11T00:53:20.539Z,100887.34
2019-05-11T00:55:49.234Z,100882.31
2019-05-11T00:58:17.803Z,100880.23
2019-05-11T01:00:46.386Z,100880.62
2019-05-11T01:03:14.937Z,100885.91
2019-05-11T01:05:43.601Z,100880.50
2019-05-11T01:08:12.185Z,100874.81
2019-05-11T01:10:42.562Z,100875.28
2019-05-11T01:13:11.189Z,100863.74
2019-05-11T01:15:39.783Z,100868.84
2019-05-11T01:18:08.368Z,100863.63
2019-05-11T01:20:37.090Z,100873.73
2019-05-11T01:23:05.672Z,100865.28
2019-05-11T01:25:34.308Z,100861.57
2019-05-11T01:28:02.839Z,100855.50
2019-05-11T01:30:32.124Z,100863.52
2019-05-11T01:33:00.590Z,100857.93
2019-05-11T01:35:29.208Z,100848.19
2019-05-11T01:37:57.811Z,100852.19
2019-05-11T01:40:26.453Z,100848.00
2019-05-11T01:42:55.119Z,100848.08
2019-05-11T01:45:23.774Z,100849.88
2019-05-11T01:47:52.375Z,100852.47
2019-05-11T01:50:20.906Z,100847.68
2019-05-11T01:52:49.525Z,100837.87
2019-05-11T01:55:18.082Z,100835.59
2019-05-11T01:57:46.749Z,100826.86
2019-05-11T02:00:15.387Z,100826.02
2019-05-11T02:02:43.949Z,100826.84
2019-05-11T02:05:30.487Z,100825.78
2019-05-11T02:08:00.829Z,100825.80
2019-05-11T02:10:29.638Z,100835.50
2019-05-11T02:12:58.232Z,100835.33
2019-05-11T02:15:26.859Z,100840.56
2019-05-11T02:17:55.490Z,100836.95
2019-05-11T02:20:24.107Z,100836.25
2019-05-11T02:22:52.742Z,100839.58
2019-05-11T02:25:21.340Z,100838.21
2019-05-11T02:27:49.985Z,100840.42
2019-05-11T02:30:18.680Z,100847.40
2019-05-11T02:32:47.256Z,100847.40
2019-05-11T02:35:15.877Z,100844.22
2019-05-11T02:37:44.385Z,100846.13
2019-05-11T02:40:13.495Z,100847.20
2019-05-11T02:42:42.117Z,100846.39
2019-05-11T02:45:11.414Z,100847.78
2019-05-11T02:47:40.260Z,100848.66
2019-05-11T02:50:09.690Z,100854.11
2019-05-11T02:52:39.471Z,100850.45
2019-05-11T02:55:09.111Z,100843.19
2019-05-11T02:57:37.732Z,100844.78
2019-05-11T03:00:09.453Z,100839.91
2019-05-11T03:02:37.925Z,100842.45
2019-05-11T03:05:08.463Z,100840.94
2019-05-11T03:07:36.943Z,100846.39
2019-05-11T03:10:06.732Z,100841.91
2019-05-11T03:12:35.382Z,100846.86
2019-05-11T03:15:05.732Z,100839.02
2019-05-11T03:17:34.355Z,100835.40
2019-05-11T03:20:03.426Z,100842.12
2019-05-11T03:22:31.974Z,100841.50
2019-05-11T03:25:00.597Z,100836.63
2019-05-11T03:27:29.171Z,100848.80
2019-05-11T03:30:00.826Z,100845.47
2019-05-11T03:32:28.126Z,100855.09
2019-05-11T03:34:56.634Z,100847.23
2019-05-11T03:37:25.189Z,100849.78
2019-05-11T03:39:53.838Z,100852.17
2019-05-11T03:42:22.344Z,100858.78
2019-05-11T03:44:50.992Z,100850.66
2019-05-11T03:47:19.644Z,100846.83
2019-05-11T03:49:48.300Z,100855.11
2019-05-11T03:52:17.119Z,100858.55
2019-05-11T03:54:45.744Z,100845.76
2019-05-11T03:57:14.413Z,100845.76
2019-05-11T03:59:43.077Z,100846.18
2019-05-11T04:02:11.642Z,100852.03
2019-05-11T04:04:40.189Z,100856.16
2019-05-11T04:07:08.746Z,100862.09
2019-05-11T04:09:37.259Z,100848.16
2019-05-11T04:12:05.905Z,100848.16
2019-05-11T04:14:34.351Z,100861.16
2019-05-11T04:17:02.964Z,100854.38
2019-05-11T04:19:31.480Z,100852.39
2019-05-11T04:22:00.122Z,100858.42
2019-05-11T04:24:28.673Z,100858.64
2019-05-11T04:26:57.278Z,100852.44
2019-05-11T04:29:25.786Z,100852.51
2019-05-11T04:31:54.303Z,100854.11
2019-05-11T04:34:22.778Z,100852.84
2019-05-11T04:36:51.356Z,100859.14
2019-05-11T04:39:19.904Z,100855.87
2019-05-11T04:41:48.600Z,100859.27
2019-05-11T04:44:17.051Z,100853.32
2019-05-11T04:46:45.696Z,100860.05
2019-05-11T04:49:14.232Z,100856.22
2019-05-11T04:51:42.859Z,100857.05
2019-05-11T04:54:11.514Z,100857.27
2019-05-11T04:56:40.026Z,100863.64
2019-05-11T04:59:08.648Z,100859.19
2019-05-11T05:01:37.164Z,100863.83
2019-05-11T05:04:13.961Z,100861.11
2019-05-11T05:06:38.836Z,100851.85
2019-05-11T05:09:07.210Z,100857.24
2019-05-11T05:11:36.795Z,100858.28
2019-05-11T05:14:08.035Z,100861.19
2019-05-11T05:16:36.364Z,100862.78
2019-05-11T05:19:04.989Z,100860.06
2019-05-11T05:21:33.531Z,100862.92
2019-05-11T05:24:02.085Z,100869.70
2019-05-11T05:26:30.715Z,100872.86
2019-05-11T05:28:59.345Z,100874.02
2019-05-11T05:31:27.858Z,100875.92
2019-05-11T05:33:56.338Z,100874.40
2019-05-11T05:36:24.956Z,100875.06
2019-05-11T05:38:53.578Z,100879.47
2019-05-11T05:41:22.189Z,100868.03
2019-05-11T05:43:50.806Z,100878.62
2019-05-11T05:46:19.410Z,100882.64
2019-05-11T05:48:47.964Z,100882.16
2019-05-11T05:51:16.440Z,100881.86
2019-05-11T05:53:44.967Z,100881.06
2019-05-11T05:56:13.523Z,100884.11
2019-05-11T05:58:42.106Z,100886.27
2019-05-11T06:01:10.695Z,100890.11
2019-05-11T06:03:39.243Z,100890.00
2019-05-11T06:06:07.852Z,100889.38
2019-05-11T06:08:36.432Z,100888.11
2019-05-11T06:11:05.407Z,100893.05
2019-05-11T06:13:44.567Z,100890.32
2019-05-11T06:16:04.219Z,100896.34
2019-05-11T06:18:32.778Z,100896.34
2019-05-11T06:21:01.261Z,100902.98
2019-05-11T06:23:29.793Z,100900.57
2019-05-11T06:25:58.428Z,100919.59
2019-05-11T06:28:27.059Z,100919.59
2019-05-11T06:30:55.586Z,100911.56
2019-05-11T06:33:24.095Z,100920.51
2019-05-11T06:35:52.755Z,100916.26
2019-05-11T06:38:21.251Z,100920.51
2019-05-11T06:40:49.830Z,100922.59
2019-05-11T06:43:18.422Z,100932.99
2019-05-11T06:45:47.024Z,100930.34
2019-05-11T06:48:15.586Z,100936.05
2019-05-11T06:50:44.114Z,100930.27
2019-05-11T06:53:12.696Z,100925.16
2019-05-11T06:55:41.232Z,100926.11
2019-05-11T06:58:09.751Z,100922.69
2019-05-11T07:00:38.291Z,100929.45
2019-05-11T07:03:06.979Z,100921.70
2019-05-11T07:05:36.218Z,100918.54
2019-05-11T07:08:04.743Z,100923.12
2019-05-11T07:10:33.362Z,100918.20
2019-05-11T07:13:01.904Z,100924.21
2019-05-11T07:15:30.512Z,100918.25
2019-05-11T07:17:59.198Z,100921.21
2019-05-11T07:20:27.736Z,100928.05
2019-05-11T07:22:56.376Z,100923.94
2019-05-11T07:25:24.907Z,100925.88
2019-05-11T07:27:53.542Z,100936.36
2019-05-11T07:30:22.159Z,100950.19
2019-05-11T07:32:50.723Z,100950.95
2019-05-11T07:35:19.372Z,100956.14
2019-05-11T07:37:48.117Z,100950.15
2019-05-11T07:40:18.729Z,100951.66
2019-05-11T07:42:48.507Z,100948.30
2019-05-11T07:45:18.148Z,100953.11
2019-05-11T07:47:48.629Z,100949.31
2019-05-11T07:50:18.149Z,100953.91
2019-05-11T07:52:48.331Z,100952.92
2019-05-11T07:55:18.977Z,100955.08
2019-05-11T07:57:48.274Z,100955.05
2019-05-11T08:00:18.606Z,100946.41
2019-05-11T08:02:48.103Z,100943.91
2019-05-11T08:05:18.014Z,100953.08
2019-05-11T08:07:48.207Z,100957.67
2019-05-11T08:10:18.617Z,100966.38
2019-05-11T08:12:48.041Z,100967.84
2019-05-11T08:15:18.349Z,100972.39
2019-05-11T08:17:48.790Z,100976.69
2019-05-11T08:20:18.712Z,100974.18
2019-05-11T08:22:48.231Z,100979.49
2019-05-11T08:25:18.244Z,100981.00
2019-05-11T08:27:48.509Z,100986.75
2019-05-11T08:30:18.791Z,100991.77
2019-05-11T08:32:49.274Z,100985.16
2019-05-11T08:35:18.197Z,100975.58
2019-05-11T08:37:47.872Z,100991.77
2019-05-11T08:40:18.440Z,100990.36
2019-05-11T08:42:48.219Z,100993.05
2019-05-11T08:45:24.237Z,100992.73
2019-05-11T08:47:48.485Z,100991.72
2019-05-11T08:50:18.762Z,100994.69
2019-05-11T08:52:48.031Z,100995.39
2019-05-11T08:55:18.972Z,100994.48
2019-05-11T08:57:47.913Z,101004.30
2019-05-11T09:00:18.306Z,101009.08
2019-05-11T09:02:50.512Z,101010.88
2019-05-11T09:05:18.670Z,101016.62
2019-05-11T09:07:48.466Z,101019.35
2019-05-11T09:10:18.641Z,101019.32
2019-05-11T09:12:48.796Z,101014.89
2019-05-11T09:15:32.773Z,101023.50
2019-05-11T09:17:48.771Z,101026.63
2019-05-11T09:20:18.066Z,101025.20
2019-05-11T09:22:48.537Z,101030.04
2019-05-11T09:25:18.231Z,101035.92
2019-05-11T09:27:48.220Z,101031.77
2019-05-11T09:30:18.497Z,101038.52
2019-05-11T09:32:47.877Z,101050.65
2019-05-11T09:35:18.651Z,101054.75
2019-05-11T09:37:48.431Z,101063.80
2019-05-11T09:40:18.213Z,101059.00
2019-05-11T09:42:47.857Z,101057.57
2019-05-11T09:45:18.688Z,101060.61
2019-05-11T09:47:47.735Z,101061.87
2019-05-11T09:50:17.850Z,101066.33
2019-05-11T09:52:48.900Z,101067.94
2019-05-11T09:55:18.997Z,101068.72
2019-05-11T09:57:48.660Z,101069.95
2019-05-11T10:00:18.054Z,101078.11
2019-05-11T10:02:48.735Z,101077.60
2019-05-11T10:05:18.861Z,101076.45
2019-05-11T10:07:48.474Z,101074.09
2019-05-11T10:10:18.598Z,101076.92
2019-05-11T10:12:48.526Z,101085.15
2019-05-11T10:15:18.975Z,101085.62
2019-05-11T10:17:48.299Z,101078.80
2019-05-11T10:20:18.144Z,101085.80
2019-05-11T10:22:48.621Z,101101.09
2019-05-11T10:25:18.176Z,101103.20
2019-05-11T10:27:48.896Z,101106.88
2019-05-11T10:30:18.699Z,101110.48
2019-05-11T10:32:48.414Z,101109.90
2019-05-11T10:35:18.342Z,101110.61
2019-05-11T10:37:47.807Z,101109.39
2019-05-11T10:40:18.933Z,101107.00
2019-05-11T10:42:48.358Z,101115.91
2019-05-11T10:45:18.017Z,101132.02
2019-05-11T10:47:48.984Z,101134.05
2019-05-11T10:50:18.717Z,101137.98
2019-05-11T10:52:48.362Z,101134.98
2019-05-11T10:55:19.423Z,101136.30
2019-05-11T10:57:48.714Z,101138.13
2019-05-11T11:00:18.326Z,101141.23
2019-05-11T11:02:47.703Z,101141.16
2019-05-11T11:05:18.751Z,101146.23
2019-05-11T11:07:48.418Z,101144.19
2019-05-11T11:10:18.288Z,101152.20
2019-05-11T11:12:49.014Z,101143.14
2019-05-11T11:15:18.464Z,101149.13
2019-05-11T11:17:48.581Z,101151.41
2019-05-11T11:20:18.668Z,101153.61
2019-05-11T11:22:48.262Z,101157.55
2019-05-11T11:25:18.000Z,101163.35
2019-05-11T11:27:48.622Z,101167.26
2019-05-11T11:30:18.198Z,101165.34
2019-05-11T11:32:48.243Z,101180.18
2019-05-11T11:35:18.750Z,101172.84
2019-05-11T11:37:47.951Z,101185.36
2019-05-11T11:40:17.875Z,101188.14
2019-05-11T11:42:47.791Z,101192.31
2019-05-11T11:45:18.261Z,101184.74
2019-05-11T11:47:49.361Z,101184.07
2019-05-11T11:50:17.954Z,101196.02
2019-05-11T11:52:47.688Z,101194.75
2019-05-11T11:55:18.594Z,101196.12
2019-05-11T11:57:48.980Z,101209.87
2019-05-11T12:00:18.313Z,101198.97
2019-05-11T12:02:48.756Z,101209.91
2019-05-11T12:05:17.693Z,101217.77
2019-05-11T12:07:46.261Z,101222.09
2019-05-11T12:10:15.060Z,101232.71
2019-05-11T12:12:43.605Z,101235.67
2019-05-11T12:15:12.295Z,101241.92
2019-05-11T12:17:40.844Z,101244.66
2019-05-11T12:20:09.459Z,101242.32
2019-05-11T12:22:38.641Z,101255.83
2019-05-11T12:25:08.066Z,101256.07
2019-05-11T12:27:38.424Z,101256.07
2019-05-11T12:30:09.146Z,101258.43
2019-05-11T12:32:45.281Z,101251.81
2019-05-11T12:35:14.559Z,101251.23
2019-05-11T12:37:43.176Z,101259.77
2019-05-11T12:40:12.507Z,101272.96
2019-05-11T12:42:41.108Z,101276.55
2019-05-11T12:45:10.127Z,101279.61
2019-05-11T12:47:38.816Z,101286.12
2019-05-11T12:50:08.597Z,101293.88
2019-05-11T12:52:38.260Z,101304.03
2019-05-11T12:55:08.780Z,101298.41
2019-05-11T12:57:38.640Z,101302.84
2019-05-11T13:00:09.251Z,101306.81
2019-05-11T13:02:38.797Z,101319.09
2019-05-11T13:05:08.668Z,101319.32
2019-05-11T13:07:39.285Z,101325.67
2019-05-11T13:10:08.495Z,101326.09
2019-05-11T13:12:38.595Z,101330.47
2019-05-11T13:15:08.420Z,101322.64
2019-05-11T13:17:40.126Z,101327.56
2019-05-11T13:20:08.807Z,101331.17
2019-05-11T13:22:38.611Z,101321.77
2019-05-11T13:25:08.555Z,101336.86
2019-05-11T13:27:38.668Z,101348.35
2019-05-11T13:30:10.766Z,101340.43
2019-05-11T13:32:39.302Z,101354.04
2019-05-11T13:35:09.101Z,101358.03
2019-05-11T13:37:38.787Z,101364.41
2019-05-11T13:40:08.122Z,101362.82
2019-05-11T13:42:38.560Z,101366.61
2019-05-11T13:45:08.650Z,101361.96
2019-05-11T13:47:49.328Z,101365.37
2019-05-11T13:50:07.974Z,101375.19
2019-05-11T13:52:38.420Z,101393.03
2019-05-11T13:55:08.127Z,101391.59
2019-05-11T13:57:38.049Z,101388.87
2019-05-11T14:00:08.593Z,101398.45
2019-05-11T14:02:37.924Z,101395.91
2019-05-11T14:05:08.763Z,101395.33
2019-05-11T14:07:38.136Z,101402.88
2019-05-11T14:10:08.442Z,101408.05
2019-05-11T14:12:38.568Z,101408.16
2019-05-11T14:15:08.936Z,101407.27
2019-05-11T14:17:38.080Z,101415.95
2019-05-11T14:20:09.339Z,101417.77
2019-05-11T14:22:38.847Z,101418.48
2019-05-11T14:25:08.170Z,101430.34
2019-05-11T14:27:39.119Z,101431.33
2019-05-11T14:30:08.664Z,101450.33
2019-05-11T14:32:38.833Z,101455.33
2019-05-11T14:35:11.968Z,101464.59
2019-05-11T14:37:38.342Z,101470.66
2019-05-11T14:40:08.805Z,101471.01
2019-05-11T14:42:38.170Z,101463.12
2019-05-11T14:45:08.549Z,101465.41
2019-05-11T14:47:38.718Z,101466.70
2019-05-11T14:50:08.626Z,101466.64
2019-05-11T14:52:38.782Z,101460.88
2019-05-11T14:55:08.263Z,101466.08
2019-05-11T14:57:39.410Z,101468.13
2019-05-11T15:00:08.454Z,101484.92
2019-05-11T15:02:48.536Z,101488.77
2019-05-11T15:05:18.425Z,101489.05
2019-05-11T15:07:47.948Z,101501.93
2019-05-11T15:10:18.982Z,101498.11
2019-05-11T15:12:48.896Z,101512.44
2019-05-11T15:15:18.877Z,101511.94
2019-05-11T15:17:49.147Z,101505.54
2019-05-11T15:20:18.470Z,101511.93
2019-05-11T15:22:48.850Z,101518.22
2019-05-11T15:25:19.265Z,101524.91
2019-05-11T15:27:48.912Z,101530.44
2019-05-11T15:30:18.468Z,101534.81
2019-05-11T15:32:48.116Z,101547.29
2019-05-11T15:35:18.637Z,101545.20
2019-05-11T15:37:48.154Z,101545.20
2019-05-11T15:40:21.423Z,101551.20
2019-05-11T15:42:49.995Z,101567.00
2019-05-11T15:45:19.205Z,101566.55
2019-05-11T15:47:48.738Z,101573.22
2019-05-11T15:50:19.189Z,101573.62
2019-05-11T15:52:48.823Z,101588.59
2019-05-11T15:55:18.931Z,101587.41
2019-05-11T15:57:48.324Z,101599.30
2019-05-11T16:00:18.033Z,101609.03
2019-05-11T16:02:49.057Z,101607.77
2019-05-11T16:05:18.244Z,101616.50
2019-05-11T16:07:49.217Z,101603.56
2019-05-11T16:10:18.779Z,101612.16
2019-05-11T16:12:48.565Z,101616.41
2019-05-11T16:15:19.161Z,101613.31
2019-05-11T16:17:48.788Z,101620.18
2019-05-11T16:20:18.855Z,101620.85
2019-05-11T16:22:48.062Z,101620.84
2019-05-11T16:25:19.613Z,101622.67
2019-05-11T16:27:47.547Z,101627.14
2019-05-11T16:30:18.403Z,101646.50
2019-05-11T16:32:48.087Z,101652.88
2019-05-11T16:35:17.958Z,101660.45
2019-05-11T16:37:48.608Z,101662.41
2019-05-11T16:40:20.137Z,101669.62
2019-05-11T16:42:47.905Z,101670.19
2019-05-11T16:45:18.910Z,101675.12
2019-05-11T16:47:48.213Z,101677.87
2019-05-11T16:50:18.059Z,101682.66
2019-05-11T16:52:48.176Z,101674.99
2019-05-11T16:55:18.465Z,101689.52
2019-05-11T16:57:48.437Z,101692.39
2019-05-11T17:00:17.843Z,101694.89
2019-05-11T17:02:48.703Z,101692.25
2019-05-11T17:05:25.711Z,101702.08
2019-05-11T17:07:48.319Z,101697.25
2019-05-11T17:10:17.966Z,101707.77
2019-05-11T17:12:48.276Z,101710.86
2019-05-11T17:15:18.460Z,101725.33
2019-05-11T17:17:48.663Z,101735.84
2019-05-11T17:20:19.248Z,101733.62
2019-05-11T17:22:48.462Z,101745.31
2019-05-11T17:25:19.279Z,101737.45
2019-05-11T17:27:48.669Z,101739.23
2019-05-11T17:30:19.562Z,101748.34
2019-05-11T17:32:49.231Z,101749.68
2019-05-11T17:35:18.454Z,101760.05
2019-05-11T17:37:48.477Z,101770.59
2019-05-11T17:40:20.505Z,101773.65
2019-05-11T17:42:48.233Z,101780.06
2019-05-11T17:45:18.842Z,101790.38
2019-05-11T17:47:47.436Z,101795.38
2019-05-11T17:50:16.134Z,101785.95
2019-05-11T17:52:44.781Z,101808.05
2019-05-11T17:55:13.366Z,101813.70
2019-05-11T17:57:42.502Z,101814.00
2019-05-11T18:00:11.417Z,101820.25
2019-05-11T18:02:39.939Z,101825.03
2019-05-11T18:05:09.083Z,101834.02
2019-05-11T18:07:38.632Z,101834.75
2019-05-11T18:10:08.584Z,101836.55
2019-05-11T18:12:39.154Z,101842.25
2019-05-11T18:15:08.444Z,101851.59
2019-05-11T18:17:37.178Z,101852.26
2019-05-11T18:20:16.939Z,101856.55
2019-05-11T18:22:39.588Z,101861.46
2019-05-11T18:25:08.968Z,101878.66
2019-05-11T18:27:38.666Z,101889.09
2019-05-11T18:30:08.958Z,101892.18
2019-05-11T18:32:39.693Z,101901.32
2019-05-11T18:35:08.582Z,101902.30
2019-05-11T18:37:38.982Z,101913.36
2019-05-11T18:40:08.024Z,101920.22
2019-05-11T18:42:38.344Z,101922.13
2019-05-11T18:45:08.350Z,101931.53
2019-05-11T18:47:38.206Z,101937.44
2019-05-11T18:50:07.467Z,101946.03
2019-05-11T18:52:36.049Z,101947.63
2019-05-11T18:55:08.359Z,101950.12
2019-05-11T18:57:38.387Z,101960.03
2019-05-11T19:00:09.226Z,101964.75
2019-05-11T19:02:38.701Z,101973.30
2019-05-11T19:05:07.611Z,101979.03
2019-05-11T19:07:38.570Z,101980.11
2019-05-11T19:10:08.654Z,101995.28
2019-05-11T19:12:37.760Z,101995.28
2019-05-11T19:15:08.261Z,102010.04
2019-05-11T19:17:38.495Z,102013.48
2019-05-11T19:20:08.511Z,102018.02
2019-05-11T19:22:37.720Z,102031.00
2019-05-11T19:25:08.960Z,102029.44
2019-05-11T19:27:37.847Z,102037.09
2019-05-11T19:30:08.213Z,102043.52
2019-05-11T19:32:38.353Z,102041.19
2019-05-11T19:35:08.849Z,102054.94
2019-05-11T19:37:38.943Z,102055.44
2019-05-11T19:40:09.399Z,102059.92
2019-05-11T19:42:59.025Z,102080.09
2019-05-11T19:45:29.328Z,102080.09
2019-05-11T19:47:58.372Z,102093.33
2019-05-11T19:50:26.911Z,102102.00
2019-05-11T19:52:57.810Z,102108.76
2019-05-11T19:55:28.354Z,102115.94
2019-05-11T19:57:55.963Z,102125.84
2019-05-11T20:00:24.585Z,102132.16
2019-05-11T20:02:53.153Z,102133.65
2019-05-11T20:05:21.704Z,102141.69
2019-05-11T20:07:50.285Z,102143.69
2019-05-11T20:10:19.252Z,102151.03
2019-05-11T20:12:48.510Z,102161.34
2019-05-11T20:15:18.727Z,102161.77
2019-05-11T20:17:48.529Z,102171.19
2019-05-11T20:20:18.347Z,102174.51
2019-05-11T20:22:48.163Z,102176.43
2019-05-11T20:25:18.716Z,102187.88
2019-05-11T20:27:48.562Z,102183.06
2019-05-11T20:30:18.280Z,102191.79
2019-05-11T20:32:48.523Z,102203.23
2019-05-11T20:35:17.712Z,102214.36
2019-05-11T20:37:46.306Z,102213.22
2019-05-11T20:40:15.036Z,102227.42
2019-05-11T20:42:43.624Z,102220.70
2019-05-11T20:45:12.585Z,102228.39
2019-05-11T20:47:41.079Z,102238.80
2019-05-11T20:50:10.107Z,102242.20
2019-05-11T20:52:39.780Z,102244.73
2019-05-11T20:55:09.106Z,102247.71
2019-05-11T20:57:39.180Z,102250.20
2019-05-11T21:00:09.075Z,102256.00
2019-05-11T21:02:38.237Z,102252.50
2019-05-11T21:05:09.900Z,102260.69
2019-05-11T21:07:39.137Z,102269.95
2019-05-11T21:10:09.698Z,102265.38
2019-05-11T21:12:38.956Z,102274.55
2019-05-11T21:15:11.076Z,102281.57
2019-05-11T21:17:39.792Z,102281.57
2019-05-11T21:20:09.550Z,102293.58
2019-05-11T21:22:40.705Z,102296.97
2019-05-11T21:25:09.279Z,102302.23
2019-05-11T21:27:38.407Z,102300.33
2019-05-11T21:30:09.548Z,102306.88
2019-05-11T21:32:39.245Z,102307.95
2019-05-11T21:35:08.867Z,102315.08
2019-05-11T21:37:38.871Z,102324.87
2019-05-11T21:40:09.112Z,102337.85
2019-05-11T21:42:39.114Z,102344.94
2019-05-11T21:45:09.436Z,102347.16
2019-05-11T21:47:39.936Z,102351.29
2019-05-11T21:50:10.130Z,102357.77
2019-05-11T21:52:38.993Z,102354.54
2019-05-11T21:55:09.426Z,102358.37
2019-05-11T21:57:38.392Z,102352.34
2019-05-11T22:00:09.773Z,102357.81
2019-05-11T22:02:38.891Z,102361.34
2019-05-11T22:05:08.960Z,102363.55
2019-05-11T22:07:38.826Z,102374.69
2019-05-11T22:10:09.217Z,102368.73
2019-05-11T22:12:38.896Z,102379.88
2019-05-11T22:15:10.964Z,102382.03
2019-05-11T22:17:39.913Z,102386.12
2019-05-11T22:20:09.119Z,102394.27
2019-05-11T22:22:39.119Z,102397.73
2019-05-11T22:25:08.802Z,102409.67
2019-05-11T22:27:38.741Z,102404.27
2019-05-11T22:30:08.834Z,102407.26
2019-05-11T22:32:38.429Z,102412.95
2019-05-11T22:35:08.244Z,102420.58
2019-05-11T22:37:38.644Z,102425.14
2019-05-11T22:40:09.122Z,102427.29
2019-05-11T22:42:38.092Z,102435.69
2019-05-11T22:45:09.905Z,102439.20
2019-05-11T22:47:39.544Z,102440.77
2019-05-11T22:50:09.238Z,102445.69
2019-05-11T22:52:40.424Z,102445.69
2019-05-11T22:55:11.694Z,102449.95
2019-05-11T22:57:38.936Z,102452.96
2019-05-11T23:00:09.585Z,102459.53
2019-05-11T23:02:38.369Z,102459.56
2019-05-11T23:05:08.593Z,102465.27
2019-05-11T23:07:41.199Z,102475.57
2019-05-11T23:10:09.680Z,102467.95
2019-05-11T23:12:38.735Z,102476.05
2019-05-11T23:15:12.372Z,102473.86
2019-05-11T23:17:41.154Z,102474.92
2019-05-11T23:20:11.672Z,102481.63
2019-05-11T23:22:58.106Z,102475.09
2019-05-11T23:25:19.655Z,102481.84
2019-05-11T23:27:48.812Z,102487.52
2019-05-11T23:30:19.662Z,102496.23
2019-05-11T23:32:49.246Z,102503.38
2019-05-11T23:35:18.724Z,102501.53
2019-05-11T23:37:49.591Z,102508.83
2019-05-11T23:40:18.531Z,102509.88
2019-05-11T23:42:49.101Z,102525.06
2019-05-11T23:45:18.929Z,102528.55
2019-05-11T23:47:48.718Z,102535.59
2019-05-11T23:50:19.429Z,102541.21
2019-05-11T23:52:58.173Z,102549.15
2019-05-11T23:55:19.530Z,102548.78
2019-05-11T23:57:49.132Z,102550.19
